sensor_id;sensor_type;location;lat;lon;timestamp;P1;durP1;ratioP1;P2;durP2;ratioP2
10761;SDS011;5433;50.862;4.320;2023-10-13T00:02:11;19.73;;;15.43;;
10761;SDS011;5433;50.862;4.320;2023-10-13T00:04:39;20.02;;;15.50;;
10761;SDS011;5433;50.862;4.320;2023-10-13T00:07:07;21.95;;;16.63;;
10761;SDS011;5433;50.862;4.320;2023-10-13T00:09:34;22.58;;;15.98;;
10761;SDS011;5433;50.862;4.320;2023-10-13T00:12:04;24.63;;;17.05;;
10761;SDS011;5433;50.862;4.320;2023-10-13T00:14:34;21.70;;;16.80;;
10761;SDS011;5433;50.862;4.320;2023-10-13T00:17:01;23.88;;;17.48;;
10761;SDS011;5433;50.862;4.320;2023-10-13T00:22:06;26.80;;;18.15;;
10761;SDS011;5433;50.862;4.320;2023-10-13T00:24:37;27.33;;;18.33;;
10761;SDS011;5433;50.862;4.320;2023-10-13T00:27:13;23.35;;;18.08;;
10761;SDS011;5433;50.862;4.320;2023-10-13T00:29:58;22.25;;;17.60;;
10761;SDS011;5433;50.862;4.320;2023-10-13T00:32:43;27.50;;;18.13;;
10761;SDS011;5433;50.862;4.320;2023-10-13T00:35:16;22.65;;;17.67;;
10761;SDS011;5433;50.862;4.320;2023-10-13T00:37:57;27.05;;;17.90;;
10761;SDS011;5433;50.862;4.320;2023-10-13T00:40:37;26.67;;;17.73;;
10761;SDS011;5433;50.862;4.320;2023-10-13T00:43:03;26.92;;;18.20;;
10761;SDS011;5433;50.862;4.320;2023-10-13T00:45:50;27.00;;;18.23;;
10761;SDS011;5433;50.862;4.320;2023-10-13T00:48:26;27.98;;;18.95;;
10761;SDS011;5433;50.862;4.320;2023-10-13T00:51:00;26.88;;;19.02;;
10761;SDS011;5433;50.862;4.320;2023-10-13T00:53:32;26.83;;;18.92;;
10761;SDS011;5433;50.862;4.320;2023-10-13T00:55:59;31.13;;;20.65;;
10761;SDS011;5433;50.862;4.320;2023-10-13T00:58:31;29.00;;;19.25;;
10761;SDS011;5433;50.862;4.320;2023-10-13T01:00:59;26.60;;;19.25;;
10761;SDS011;5433;50.862;4.320;2023-10-13T01:03:42;29.83;;;18.95;;
10761;SDS011;5433;50.862;4.320;2023-10-13T01:06:12;28.60;;;20.15;;
10761;SDS011;5433;50.862;4.320;2023-10-13T01:08:38;29.50;;;19.85;;
10761;SDS011;5433;50.862;4.320;2023-10-13T01:11:09;28.80;;;19.88;;
10761;SDS011;5433;50.862;4.320;2023-10-13T01:13:35;33.35;;;21.33;;
10761;SDS011;5433;50.862;4.320;2023-10-13T01:16:02;32.90;;;19.55;;
10761;SDS011;5433;50.862;4.320;2023-10-13T01:18:28;30.20;;;20.17;;
10761;SDS011;5433;50.862;4.320;2023-10-13T01:20:54;29.90;;;20.45;;
10761;SDS011;5433;50.862;4.320;2023-10-13T01:23:24;29.90;;;20.35;;
10761;SDS011;5433;50.862;4.320;2023-10-13T01:25:53;33.55;;;20.73;;
10761;SDS011;5433;50.862;4.320;2023-10-13T01:28:21;31.15;;;20.40;;
10761;SDS011;5433;50.862;4.320;2023-10-13T01:30:47;33.75;;;20.48;;
10761;SDS011;5433;50.862;4.320;2023-10-13T01:33:17;34.28;;;20.35;;
10761;SDS011;5433;50.862;4.320;2023-10-13T01:35:53;35.45;;;20.75;;
10761;SDS011;5433;50.862;4.320;2023-10-13T01:38:20;30.70;;;20.52;;
10761;SDS011;5433;50.862;4.320;2023-10-13T01:40:46;32.88;;;20.95;;
10761;SDS011;5433;50.862;4.320;2023-10-13T01:43:16;31.08;;;20.60;;
10761;SDS011;5433;50.862;4.320;2023-10-13T01:45:43;31.27;;;19.38;;
10761;SDS011;5433;50.862;4.320;2023-10-13T01:48:12;33.00;;;20.58;;
10761;SDS011;5433;50.862;4.320;2023-10-13T01:50:41;33.28;;;20.65;;
10761;SDS011;5433;50.862;4.320;2023-10-13T01:53:12;35.00;;;20.63;;
10761;SDS011;5433;50.862;4.320;2023-10-13T01:55:38;31.55;;;19.73;;
10761;SDS011;5433;50.862;4.320;2023-10-13T01:58:08;34.00;;;20.20;;
10761;SDS011;5433;50.862;4.320;2023-10-13T02:00:39;35.35;;;20.60;;
10761;SDS011;5433;50.862;4.320;2023-10-13T02:03:10;29.67;;;19.70;;
10761;SDS011;5433;50.862;4.320;2023-10-13T02:05:43;26.52;;;18.67;;
10761;SDS011;5433;50.862;4.320;2023-10-13T02:08:12;25.75;;;17.98;;
10761;SDS011;5433;50.862;4.320;2023-10-13T02:10:42;26.38;;;17.88;;
10761;SDS011;5433;50.862;4.320;2023-10-13T02:13:11;27.42;;;17.58;;
10761;SDS011;5433;50.862;4.320;2023-10-13T02:15:40;24.48;;;17.27;;
10761;SDS011;5433;50.862;4.320;2023-10-13T02:18:10;24.88;;;16.73;;
10761;SDS011;5433;50.862;4.320;2023-10-13T02:20:36;26.23;;;17.02;;
10761;SDS011;5433;50.862;4.320;2023-10-13T02:23:10;22.20;;;15.48;;
10761;SDS011;5433;50.862;4.320;2023-10-13T02:25:37;24.40;;;16.58;;
10761;SDS011;5433;50.862;4.320;2023-10-13T02:28:11;20.77;;;14.90;;
10761;SDS011;5433;50.862;4.320;2023-10-13T02:33:10;21.85;;;14.90;;
10761;SDS011;5433;50.862;4.320;2023-10-13T02:35:36;23.67;;;15.43;;
10761;SDS011;5433;50.862;4.320;2023-10-13T02:38:06;22.27;;;15.02;;
10761;SDS011;5433;50.862;4.320;2023-10-13T02:40:36;21.25;;;14.55;;
10761;SDS011;5433;50.862;4.320;2023-10-13T02:43:03;20.63;;;13.68;;
10761;SDS011;5433;50.862;4.320;2023-10-13T02:45:30;22.63;;;14.65;;
10761;SDS011;5433;50.862;4.320;2023-10-13T02:47:56;19.65;;;13.90;;
10761;SDS011;5433;50.862;4.320;2023-10-13T02:50:39;21.55;;;13.27;;
10761;SDS011;5433;50.862;4.320;2023-10-13T02:53:10;19.23;;;13.40;;
10761;SDS011;5433;50.862;4.320;2023-10-13T02:55:52;22.17;;;14.15;;
10761;SDS011;5433;50.862;4.320;2023-10-13T02:58:20;19.75;;;13.40;;
10761;SDS011;5433;50.862;4.320;2023-10-13T03:00:46;21.10;;;13.63;;
10761;SDS011;5433;50.862;4.320;2023-10-13T03:03:13;17.67;;;13.00;;
10761;SDS011;5433;50.862;4.320;2023-10-13T03:05:43;19.02;;;13.05;;
10761;SDS011;5433;50.862;4.320;2023-10-13T03:08:10;20.98;;;13.60;;
10761;SDS011;5433;50.862;4.320;2023-10-13T03:10:37;22.13;;;13.85;;
10761;SDS011;5433;50.862;4.320;2023-10-13T03:13:11;17.73;;;11.75;;
10761;SDS011;5433;50.862;4.320;2023-10-13T03:15:37;20.58;;;12.90;;
10761;SDS011;5433;50.862;4.320;2023-10-13T03:18:03;18.10;;;12.38;;
10761;SDS011;5433;50.862;4.320;2023-10-13T03:20:29;17.20;;;12.52;;
10761;SDS011;5433;50.862;4.320;2023-10-13T03:22:56;20.35;;;12.65;;
10761;SDS011;5433;50.862;4.320;2023-10-13T03:25:22;22.85;;;12.13;;
10761;SDS011;5433;50.862;4.320;2023-10-13T03:27:55;20.05;;;12.50;;
10761;SDS011;5433;50.862;4.320;2023-10-13T03:30:21;22.05;;;12.63;;
10761;SDS011;5433;50.862;4.320;2023-10-13T03:32:55;20.40;;;12.10;;
10761;SDS011;5433;50.862;4.320;2023-10-13T03:35:21;19.13;;;12.30;;
10761;SDS011;5433;50.862;4.320;2023-10-13T03:37:56;18.92;;;12.57;;
10761;SDS011;5433;50.862;4.320;2023-10-13T03:40:23;19.60;;;12.10;;
10761;SDS011;5433;50.862;4.320;2023-10-13T03:42:49;22.00;;;12.48;;
10761;SDS011;5433;50.862;4.320;2023-10-13T03:45:32;18.40;;;11.63;;
10761;SDS011;5433;50.862;4.320;2023-10-13T03:48:11;22.80;;;12.88;;
10761;SDS011;5433;50.862;4.320;2023-10-13T03:53:31;18.65;;;11.93;;
10761;SDS011;5433;50.862;4.320;2023-10-13T03:56:01;22.17;;;12.48;;
10761;SDS011;5433;50.862;4.320;2023-10-13T03:58:36;22.40;;;12.05;;
10761;SDS011;5433;50.862;4.320;2023-10-13T04:01:10;21.65;;;12.38;;
10761;SDS011;5433;50.862;4.320;2023-10-13T04:03:40;20.98;;;11.63;;
10761;SDS011;5433;50.862;4.320;2023-10-13T04:06:23;21.52;;;11.73;;
10761;SDS011;5433;50.862;4.320;2023-10-13T04:09:09;22.25;;;11.60;;
10761;SDS011;5433;50.862;4.320;2023-10-13T04:12:07;21.73;;;11.43;;
10761;SDS011;5433;50.862;4.320;2023-10-13T04:14:39;21.70;;;12.40;;
10761;SDS011;5433;50.862;4.320;2023-10-13T04:17:37;23.42;;;12.30;;
10761;SDS011;5433;50.862;4.320;2023-10-13T04:20:10;24.30;;;11.68;;
10761;SDS011;5433;50.862;4.320;2023-10-13T04:22:37;21.73;;;11.52;;
10761;SDS011;5433;50.862;4.320;2023-10-13T04:25:20;23.10;;;11.88;;
10761;SDS011;5433;50.862;4.320;2023-10-13T04:28:05;21.60;;;11.02;;
10761;SDS011;5433;50.862;4.320;2023-10-13T04:30:45;21.35;;;10.55;;
10761;SDS011;5433;50.862;4.320;2023-10-13T04:33:20;19.05;;;10.95;;
10761;SDS011;5433;50.862;4.320;2023-10-13T04:36:09;20.00;;;10.90;;
10761;SDS011;5433;50.862;4.320;2023-10-13T04:38:45;18.55;;;10.25;;
10761;SDS011;5433;50.862;4.320;2023-10-13T04:41:39;21.13;;;10.23;;
10761;SDS011;5433;50.862;4.320;2023-10-13T04:44:28;21.83;;;10.07;;
10761;SDS011;5433;50.862;4.320;2023-10-13T04:46:54;19.73;;;9.85;;
10761;SDS011;5433;50.862;4.320;2023-10-13T04:49:24;17.85;;;10.48;;
10761;SDS011;5433;50.862;4.320;2023-10-13T04:52:01;19.73;;;10.13;;
10761;SDS011;5433;50.862;4.320;2023-10-13T04:54:33;16.52;;;9.48;;
10761;SDS011;5433;50.862;4.320;2023-10-13T04:57:11;16.92;;;9.77;;
10761;SDS011;5433;50.862;4.320;2023-10-13T04:59:55;18.23;;;10.07;;
10761;SDS011;5433;50.862;4.320;2023-10-13T05:02:43;15.50;;;9.82;;
10761;SDS011;5433;50.862;4.320;2023-10-13T05:05:24;20.90;;;11.02;;
10761;SDS011;5433;50.862;4.320;2023-10-13T05:07:50;20.90;;;10.45;;
10761;SDS011;5433;50.862;4.320;2023-10-13T05:10:36;18.65;;;11.13;;
10761;SDS011;5433;50.862;4.320;2023-10-13T05:13:21;19.95;;;10.85;;
10761;SDS011;5433;50.862;4.320;2023-10-13T05:16:06;24.17;;;11.45;;
10761;SDS011;5433;50.862;4.320;2023-10-13T05:18:50;22.08;;;10.93;;
10761;SDS011;5433;50.862;4.320;2023-10-13T05:21:36;22.02;;;10.88;;
10761;SDS011;5433;50.862;4.320;2023-10-13T05:24:21;23.38;;;10.88;;
10761;SDS011;5433;50.862;4.320;2023-10-13T05:27:05;22.00;;;10.10;;
10761;SDS011;5433;50.862;4.320;2023-10-13T05:29:50;22.30;;;10.15;;
10761;SDS011;5433;50.862;4.320;2023-10-13T05:32:35;19.20;;;9.75;;
10761;SDS011;5433;50.862;4.320;2023-10-13T05:35:20;16.55;;;9.25;;
10761;SDS011;5433;50.862;4.320;2023-10-13T05:38:05;20.92;;;8.43;;
10761;SDS011;5433;50.862;4.320;2023-10-13T05:43:37;17.92;;;8.80;;
10761;SDS011;5433;50.862;4.320;2023-10-13T05:46:22;17.88;;;8.45;;
10761;SDS011;5433;50.862;4.320;2023-10-13T05:48:51;15.75;;;7.75;;
10761;SDS011;5433;50.862;4.320;2023-10-13T05:51:26;13.20;;;8.02;;
10761;SDS011;5433;50.862;4.320;2023-10-13T05:54:11;14.77;;;8.07;;
10761;SDS011;5433;50.862;4.320;2023-10-13T05:59:28;16.92;;;8.40;;
10761;SDS011;5433;50.862;4.320;2023-10-13T06:02:17;13.30;;;7.32;;
10761;SDS011;5433;50.862;4.320;2023-10-13T06:05:02;17.17;;;7.50;;
10761;SDS011;5433;50.862;4.320;2023-10-13T06:07:47;17.20;;;7.20;;
10761;SDS011;5433;50.862;4.320;2023-10-13T06:10:32;18.25;;;7.15;;
10761;SDS011;5433;50.862;4.320;2023-10-13T06:13:17;16.23;;;7.32;;
10761;SDS011;5433;50.862;4.320;2023-10-13T06:16:05;15.40;;;7.10;;
10761;SDS011;5433;50.862;4.320;2023-10-13T06:18:50;14.20;;;6.93;;
10761;SDS011;5433;50.862;4.320;2023-10-13T06:21:35;15.40;;;6.60;;
10761;SDS011;5433;50.862;4.320;2023-10-13T06:24:19;16.77;;;7.13;;
10761;SDS011;5433;50.862;4.320;2023-10-13T06:27:04;14.52;;;6.78;;
10761;SDS011;5433;50.862;4.320;2023-10-13T06:29:48;11.57;;;6.35;;
10761;SDS011;5433;50.862;4.320;2023-10-13T06:32:14;12.75;;;6.68;;
10761;SDS011;5433;50.862;4.320;2023-10-13T06:34:44;12.73;;;6.20;;
10761;SDS011;5433;50.862;4.320;2023-10-13T06:37:13;12.35;;;6.45;;
10761;SDS011;5433;50.862;4.320;2023-10-13T06:39:54;13.73;;;6.53;;
10761;SDS011;5433;50.862;4.320;2023-10-13T06:42:39;10.40;;;6.28;;
10761;SDS011;5433;50.862;4.320;2023-10-13T06:45:08;15.23;;;6.40;;
10761;SDS011;5433;50.862;4.320;2023-10-13T06:47:37;14.27;;;6.43;;
10761;SDS011;5433;50.862;4.320;2023-10-13T06:50:14;13.07;;;6.57;;
10761;SDS011;5433;50.862;4.320;2023-10-13T06:52:47;12.98;;;6.28;;
10761;SDS011;5433;50.862;4.320;2023-10-13T06:55:14;11.77;;;5.80;;
10761;SDS011;5433;50.862;4.320;2023-10-13T06:57:48;11.40;;;5.90;;
10761;SDS011;5433;50.862;4.320;2023-10-13T07:00:16;14.70;;;6.13;;
10761;SDS011;5433;50.862;4.320;2023-10-13T07:02:59;10.95;;;5.72;;
10761;SDS011;5433;50.862;4.320;2023-10-13T07:05:35;13.50;;;5.78;;
10761;SDS011;5433;50.862;4.320;2023-10-13T07:08:03;12.30;;;5.90;;
10761;SDS011;5433;50.862;4.320;2023-10-13T07:10:29;13.57;;;6.10;;
10761;SDS011;5433;50.862;4.320;2023-10-13T07:12:57;13.00;;;5.97;;
10761;SDS011;5433;50.862;4.320;2023-10-13T07:15:25;13.95;;;5.78;;
10761;SDS011;5433;50.862;4.320;2023-10-13T07:17:54;11.85;;;5.32;;
10761;SDS011;5433;50.862;4.320;2023-10-13T07:20:24;14.25;;;6.07;;
10761;SDS011;5433;50.862;4.320;2023-10-13T07:22:53;14.30;;;5.90;;
10761;SDS011;5433;50.862;4.320;2023-10-13T07:25:28;11.95;;;5.68;;
10761;SDS011;5433;50.862;4.320;2023-10-13T07:27:58;17.38;;;6.55;;
10761;SDS011;5433;50.862;4.320;2023-10-13T07:30:24;11.00;;;5.80;;
10761;SDS011;5433;50.862;4.320;2023-10-13T07:32:53;13.43;;;6.32;;
10761;SDS011;5433;50.862;4.320;2023-10-13T07:35:24;14.20;;;6.10;;
10761;SDS011;5433;50.862;4.320;2023-10-13T07:37:52;14.35;;;6.40;;
10761;SDS011;5433;50.862;4.320;2023-10-13T07:40:24;11.20;;;5.47;;
10761;SDS011;5433;50.862;4.320;2023-10-13T07:42:50;11.90;;;6.10;;
10761;SDS011;5433;50.862;4.320;2023-10-13T07:45:17;11.30;;;5.50;;
10761;SDS011;5433;50.862;4.320;2023-10-13T07:47:46;13.07;;;5.60;;
10761;SDS011;5433;50.862;4.320;2023-10-13T07:50:13;11.07;;;6.28;;
10761;SDS011;5433;50.862;4.320;2023-10-13T07:52:39;12.65;;;5.47;;
10761;SDS011;5433;50.862;4.320;2023-10-13T07:55:23;9.73;;;5.80;;
10761;SDS011;5433;50.862;4.320;2023-10-13T07:57:50;9.43;;;5.55;;
10761;SDS011;5433;50.862;4.320;2023-10-13T08:00:19;10.90;;;6.03;;
10761;SDS011;5433;50.862;4.320;2023-10-13T08:03:01;13.73;;;6.10;;
10761;SDS011;5433;50.862;4.320;2023-10-13T08:05:57;10.85;;;6.03;;
10761;SDS011;5433;50.862;4.320;2023-10-13T08:08:44;11.55;;;5.50;;
10761;SDS011;5433;50.862;4.320;2023-10-13T08:11:15;9.52;;;5.50;;
10761;SDS011;5433;50.862;4.320;2023-10-13T08:13:59;10.85;;;5.45;;
10761;SDS011;5433;50.862;4.320;2023-10-13T08:16:41;11.23;;;5.72;;
10761;SDS011;5433;50.862;4.320;2023-10-13T08:19:23;11.32;;;5.90;;
10761;SDS011;5433;50.862;4.320;2023-10-13T08:21:54;10.40;;;5.72;;
10761;SDS011;5433;50.862;4.320;2023-10-13T08:24:24;10.93;;;5.80;;
10761;SDS011;5433;50.862;4.320;2023-10-13T08:27:17;8.73;;;5.75;;
10761;SDS011;5433;50.862;4.320;2023-10-13T08:29:59;9.25;;;5.57;;
10761;SDS011;5433;50.862;4.320;2023-10-13T08:32:44;10.80;;;5.38;;
10761;SDS011;5433;50.862;4.320;2023-10-13T08:35:24;12.68;;;5.75;;
10761;SDS011;5433;50.862;4.320;2023-10-13T08:37:59;12.02;;;5.57;;
10761;SDS011;5433;50.862;4.320;2023-10-13T08:40:28;14.25;;;5.60;;
10761;SDS011;5433;50.862;4.320;2023-10-13T08:43:13;11.38;;;5.55;;
10761;SDS011;5433;50.862;4.320;2023-10-13T08:45:42;11.20;;;6.25;;
10761;SDS011;5433;50.862;4.320;2023-10-13T08:48:09;12.45;;;5.30;;
10761;SDS011;5433;50.862;4.320;2023-10-13T08:50:42;11.52;;;5.30;;
10761;SDS011;5433;50.862;4.320;2023-10-13T08:53:22;9.32;;;5.30;;
10761;SDS011;5433;50.862;4.320;2023-10-13T08:55:55;12.88;;;5.70;;
10761;SDS011;5433;50.862;4.320;2023-10-13T08:58:33;12.23;;;5.43;;
10761;SDS011;5433;50.862;4.320;2023-10-13T09:04:08;10.95;;;5.95;;
10761;SDS011;5433;50.862;4.320;2023-10-13T09:06:44;14.25;;;6.53;;
10761;SDS011;5433;50.862;4.320;2023-10-13T09:09:15;11.52;;;6.13;;
10761;SDS011;5433;50.862;4.320;2023-10-13T09:12:20;14.75;;;6.03;;
10761;SDS011;5433;50.862;4.320;2023-10-13T09:14:59;12.80;;;5.72;;
10761;SDS011;5433;50.862;4.320;2023-10-13T09:17:41;12.20;;;6.05;;
10761;SDS011;5433;50.862;4.320;2023-10-13T09:20:07;12.30;;;6.18;;
10761;SDS011;5433;50.862;4.320;2023-10-13T09:22:53;12.13;;;5.90;;
10761;SDS011;5433;50.862;4.320;2023-10-13T09:25:29;13.93;;;5.85;;
10761;SDS011;5433;50.862;4.320;2023-10-13T09:28:02;13.38;;;6.03;;
10761;SDS011;5433;50.862;4.320;2023-10-13T09:30:41;10.10;;;6.40;;
10761;SDS011;5433;50.862;4.320;2023-10-13T09:33:08;12.10;;;6.30;;
10761;SDS011;5433;50.862;4.320;2023-10-13T09:35:34;11.23;;;6.30;;
10761;SDS011;5433;50.862;4.320;2023-10-13T09:38:02;16.75;;;7.35;;
10761;SDS011;5433;50.862;4.320;2023-10-13T09:40:28;12.35;;;6.43;;
10761;SDS011;5433;50.862;4.320;2023-10-13T09:42:58;14.23;;;5.93;;
10761;SDS011;5433;50.862;4.320;2023-10-13T09:45:30;13.75;;;6.03;;
10761;SDS011;5433;50.862;4.320;2023-10-13T09:48:10;11.10;;;5.78;;
10761;SDS011;5433;50.862;4.320;2023-10-13T09:50:41;12.18;;;5.85;;
10761;SDS011;5433;50.862;4.320;2023-10-13T09:53:09;12.30;;;6.30;;
10761;SDS011;5433;50.862;4.320;2023-10-13T09:55:40;15.43;;;6.40;;
10761;SDS011;5433;50.862;4.320;2023-10-13T09:58:10;12.68;;;6.13;;
10761;SDS011;5433;50.862;4.320;2023-10-13T10:00:43;13.52;;;5.85;;
10761;SDS011;5433;50.862;4.320;2023-10-13T10:03:11;11.00;;;5.93;;
10761;SDS011;5433;50.862;4.320;2023-10-13T10:06:01;12.93;;;6.38;;
10761;SDS011;5433;50.862;4.320;2023-10-13T10:08:42;11.50;;;6.25;;
10761;SDS011;5433;50.862;4.320;2023-10-13T10:16:11;11.85;;;5.85;;
10761;SDS011;5433;50.862;4.320;2023-10-13T10:18:40;13.30;;;6.18;;
10761;SDS011;5433;50.862;4.320;2023-10-13T10:21:07;12.57;;;5.78;;
10761;SDS011;5433;50.862;4.320;2023-10-13T10:23:35;14.10;;;6.15;;
10761;SDS011;5433;50.862;4.320;2023-10-13T10:28:37;12.93;;;5.93;;
10761;SDS011;5433;50.862;4.320;2023-10-13T10:31:07;12.02;;;6.00;;
10761;SDS011;5433;50.862;4.320;2023-10-13T10:33:37;12.65;;;5.75;;
10761;SDS011;5433;50.862;4.320;2023-10-13T10:36:03;13.18;;;5.80;;
10761;SDS011;5433;50.862;4.320;2023-10-13T10:38:30;9.38;;;5.80;;
10761;SDS011;5433;50.862;4.320;2023-10-13T10:41:06;12.00;;;6.22;;
10761;SDS011;5433;50.862;4.320;2023-10-13T10:43:36;15.13;;;6.18;;
10761;SDS011;5433;50.862;4.320;2023-10-13T10:48:39;13.10;;;6.10;;
10761;SDS011;5433;50.862;4.320;2023-10-13T10:51:12;12.40;;;6.00;;
10761;SDS011;5433;50.862;4.320;2023-10-13T10:53:40;13.38;;;6.00;;
10761;SDS011;5433;50.862;4.320;2023-10-13T10:56:12;20.13;;;5.80;;
10761;SDS011;5433;50.862;4.320;2023-10-13T10:58:49;16.48;;;6.45;;
10761;SDS011;5433;50.862;4.320;2023-10-13T11:01:20;15.07;;;6.03;;
10761;SDS011;5433;50.862;4.320;2023-10-13T11:04:02;13.63;;;5.82;;
10761;SDS011;5433;50.862;4.320;2023-10-13T11:07:04;14.10;;;6.22;;
10761;SDS011;5433;50.862;4.320;2023-10-13T11:09:32;14.65;;;6.07;;
10761;SDS011;5433;50.862;4.320;2023-10-13T11:14:59;11.80;;;5.60;;
10761;SDS011;5433;50.862;4.320;2023-10-13T11:17:25;15.77;;;6.50;;
10761;SDS011;5433;50.862;4.320;2023-10-13T11:20:07;12.75;;;6.22;;
10761;SDS011;5433;50.862;4.320;2023-10-13T11:22:40;14.43;;;6.07;;
10761;SDS011;5433;50.862;4.320;2023-10-13T11:25:08;14.35;;;5.80;;
10761;SDS011;5433;50.862;4.320;2023-10-13T11:27:35;14.10;;;6.10;;
10761;SDS011;5433;50.862;4.320;2023-10-13T11:30:11;14.50;;;5.90;;
10761;SDS011;5433;50.862;4.320;2023-10-13T11:32:40;14.85;;;5.70;;
10761;SDS011;5433;50.862;4.320;2023-10-13T11:35:07;13.40;;;6.15;;
10761;SDS011;5433;50.862;4.320;2023-10-13T11:37:49;16.50;;;6.30;;
10761;SDS011;5433;50.862;4.320;2023-10-13T11:40:28;15.75;;;6.32;;
10761;SDS011;5433;50.862;4.320;2023-10-13T11:43:33;13.00;;;5.70;;
10761;SDS011;5433;50.862;4.320;2023-10-13T11:46:12;13.77;;;6.30;;
10761;SDS011;5433;50.862;4.320;2023-10-13T11:48:40;13.90;;;6.43;;
10761;SDS011;5433;50.862;4.320;2023-10-13T11:51:07;15.52;;;6.63;;
10761;SDS011;5433;50.862;4.320;2023-10-13T11:53:34;11.32;;;5.93;;
10761;SDS011;5433;50.862;4.320;2023-10-13T11:56:00;10.23;;;5.32;;
10761;SDS011;5433;50.862;4.320;2023-10-13T11:58:33;12.27;;;5.72;;
10761;SDS011;5433;50.862;4.320;2023-10-13T12:00:59;18.73;;;6.40;;
10761;SDS011;5433;50.862;4.320;2023-10-13T12:03:38;14.13;;;5.57;;
10761;SDS011;5433;50.862;4.320;2023-10-13T12:06:22;12.35;;;5.68;;
10761;SDS011;5433;50.862;4.320;2023-10-13T12:09:04;12.40;;;5.75;;
10761;SDS011;5433;50.862;4.320;2023-10-13T12:11:43;13.15;;;5.50;;
10761;SDS011;5433;50.862;4.320;2023-10-13T12:14:10;13.88;;;5.53;;
10761;SDS011;5433;50.862;4.320;2023-10-13T12:16:44;14.43;;;5.57;;
10761;SDS011;5433;50.862;4.320;2023-10-13T12:19:19;13.15;;;5.43;;
10761;SDS011;5433;50.862;4.320;2023-10-13T12:21:52;10.77;;;5.63;;
10761;SDS011;5433;50.862;4.320;2023-10-13T12:24:22;13.70;;;5.72;;
10761;SDS011;5433;50.862;4.320;2023-10-13T12:27:01;14.70;;;5.97;;
10761;SDS011;5433;50.862;4.320;2023-10-13T12:29:27;12.65;;;5.43;;
10761;SDS011;5433;50.862;4.320;2023-10-13T12:31:57;13.68;;;6.00;;
10761;SDS011;5433;50.862;4.320;2023-10-13T12:34:36;12.52;;;5.80;;
10761;SDS011;5433;50.862;4.320;2023-10-13T12:37:22;11.95;;;5.50;;
10761;SDS011;5433;50.862;4.320;2023-10-13T12:42:54;12.43;;;5.60;;
10761;SDS011;5433;50.862;4.320;2023-10-13T12:45:39;10.38;;;5.40;;
10761;SDS011;5433;50.862;4.320;2023-10-13T12:48:24;12.18;;;5.20;;
10761;SDS011;5433;50.862;4.320;2023-10-13T12:51:09;10.60;;;5.40;;
10761;SDS011;5433;50.862;4.320;2023-10-13T12:54:07;12.10;;;5.35;;
10761;SDS011;5433;50.862;4.320;2023-10-13T12:56:41;11.63;;;5.43;;
10761;SDS011;5433;50.862;4.320;2023-10-13T12:59:08;9.57;;;5.50;;
10761;SDS011;5433;50.862;4.320;2023-10-13T13:01:38;9.82;;;5.38;;
10761;SDS011;5433;50.862;4.320;2023-10-13T13:04:07;9.63;;;5.28;;
10761;SDS011;5433;50.862;4.320;2023-10-13T13:06:37;10.57;;;5.30;;
10761;SDS011;5433;50.862;4.320;2023-10-13T13:09:05;7.90;;;5.03;;
10761;SDS011;5433;50.862;4.320;2023-10-13T13:11:34;12.63;;;5.03;;
10761;SDS011;5433;50.862;4.320;2023-10-13T13:14:04;10.00;;;4.72;;
10761;SDS011;5433;50.862;4.320;2023-10-13T13:16:32;10.35;;;5.20;;
10761;SDS011;5433;50.862;4.320;2023-10-13T13:18:58;10.25;;;5.22;;
10761;SDS011;5433;50.862;4.320;2023-10-13T13:21:28;9.93;;;5.20;;
10761;SDS011;5433;50.862;4.320;2023-10-13T13:23:54;9.63;;;4.90;;
10761;SDS011;5433;50.862;4.320;2023-10-13T13:26:21;11.02;;;5.30;;
10761;SDS011;5433;50.862;4.320;2023-10-13T13:28:47;10.40;;;4.72;;
10761;SDS011;5433;50.862;4.320;2023-10-13T13:31:19;11.27;;;4.85;;
10761;SDS011;5433;50.862;4.320;2023-10-13T13:33:54;11.10;;;5.00;;
10761;SDS011;5433;50.862;4.320;2023-10-13T13:36:21;11.60;;;5.00;;
10761;SDS011;5433;50.862;4.320;2023-10-13T13:38:47;10.55;;;5.28;;
10761;SDS011;5433;50.862;4.320;2023-10-13T13:41:16;10.43;;;5.57;;
10761;SDS011;5433;50.862;4.320;2023-10-13T13:43:45;14.25;;;5.28;;
10761;SDS011;5433;50.862;4.320;2023-10-13T13:46:15;10.35;;;5.60;;
10761;SDS011;5433;50.862;4.320;2023-10-13T13:48:42;7.32;;;4.97;;
10761;SDS011;5433;50.862;4.320;2023-10-13T13:51:08;10.05;;;5.10;;
10761;SDS011;5433;50.862;4.320;2023-10-13T13:53:55;11.07;;;5.72;;
10761;SDS011;5433;50.862;4.320;2023-10-13T13:56:22;10.13;;;5.03;;
10761;SDS011;5433;50.862;4.320;2023-10-13T13:58:53;9.40;;;4.93;;
10761;SDS011;5433;50.862;4.320;2023-10-13T14:01:23;11.32;;;4.90;;
10761;SDS011;5433;50.862;4.320;2023-10-13T14:03:54;9.05;;;4.95;;
10761;SDS011;5433;50.862;4.320;2023-10-13T14:06:27;9.55;;;5.07;;
10761;SDS011;5433;50.862;4.320;2023-10-13T14:08:57;7.93;;;4.90;;
10761;SDS011;5433;50.862;4.320;2023-10-13T14:11:26;9.15;;;5.10;;
10761;SDS011;5433;50.862;4.320;2023-10-13T14:16:37;9.02;;;5.35;;
10761;SDS011;5433;50.862;4.320;2023-10-13T14:19:03;9.55;;;5.47;;
10761;SDS011;5433;50.862;4.320;2023-10-13T14:21:33;11.32;;;4.97;;
10761;SDS011;5433;50.862;4.320;2023-10-13T14:24:00;10.00;;;5.53;;
10761;SDS011;5433;50.862;4.320;2023-10-13T14:26:26;7.65;;;5.05;;
10761;SDS011;5433;50.862;4.320;2023-10-13T14:28:53;10.48;;;5.10;;
10761;SDS011;5433;50.862;4.320;2023-10-13T14:31:35;10.95;;;5.20;;
10761;SDS011;5433;50.862;4.320;2023-10-13T14:34:02;11.57;;;5.53;;
10761;SDS011;5433;50.862;4.320;2023-10-13T14:36:28;10.18;;;5.30;;
10761;SDS011;5433;50.862;4.320;2023-10-13T14:38:55;10.77;;;5.60;;
10761;SDS011;5433;50.862;4.320;2023-10-13T14:41:21;8.30;;;5.43;;
10761;SDS011;5433;50.862;4.320;2023-10-13T14:43:47;10.65;;;5.65;;
10761;SDS011;5433;50.862;4.320;2023-10-13T14:46:16;9.45;;;5.38;;
10761;SDS011;5433;50.862;4.320;2023-10-13T14:48:42;9.13;;;5.75;;
10761;SDS011;5433;50.862;4.320;2023-10-13T14:51:09;10.43;;;5.80;;
10761;SDS011;5433;50.862;4.320;2023-10-13T14:53:38;10.57;;;5.72;;
10761;SDS011;5433;50.862;4.320;2023-10-13T14:56:08;11.02;;;5.15;;
10761;SDS011;5433;50.862;4.320;2023-10-13T14:58:34;10.32;;;5.60;;
10761;SDS011;5433;50.862;4.320;2023-10-13T15:01:00;9.48;;;5.63;;
10761;SDS011;5433;50.862;4.320;2023-10-13T15:03:28;9.20;;;5.43;;
10761;SDS011;5433;50.862;4.320;2023-10-13T15:05:57;11.10;;;5.40;;
10761;SDS011;5433;50.862;4.320;2023-10-13T15:08:23;9.32;;;5.70;;
10761;SDS011;5433;50.862;4.320;2023-10-13T15:10:49;11.20;;;5.72;;
10761;SDS011;5433;50.862;4.320;2023-10-13T15:13:15;9.90;;;5.75;;
10761;SDS011;5433;50.862;4.320;2023-10-13T15:15:41;11.18;;;5.63;;
10761;SDS011;5433;50.862;4.320;2023-10-13T15:18:07;11.80;;;5.78;;
10761;SDS011;5433;50.862;4.320;2023-10-13T15:20:38;11.00;;;5.65;;
10761;SDS011;5433;50.862;4.320;2023-10-13T15:23:05;7.35;;;6.15;;
10761;SDS011;5433;50.862;4.320;2023-10-13T15:25:31;8.55;;;5.45;;
10761;SDS011;5433;50.862;4.320;2023-10-13T15:28:04;9.50;;;5.75;;
10761;SDS011;5433;50.862;4.320;2023-10-13T15:30:34;7.88;;;5.28;;
10761;SDS011;5433;50.862;4.320;2023-10-13T15:33:11;10.32;;;5.57;;
10761;SDS011;5433;50.862;4.320;2023-10-13T15:35:40;10.57;;;5.40;;
10761;SDS011;5433;50.862;4.320;2023-10-13T15:38:10;8.27;;;5.45;;
10761;SDS011;5433;50.862;4.320;2023-10-13T15:40:46;8.38;;;5.65;;
10761;SDS011;5433;50.862;4.320;2023-10-13T15:43:12;8.15;;;5.75;;
10761;SDS011;5433;50.862;4.320;2023-10-13T15:45:38;8.57;;;5.63;;
10761;SDS011;5433;50.862;4.320;2023-10-13T15:48:04;10.65;;;5.53;;
10761;SDS011;5433;50.862;4.320;2023-10-13T15:50:38;9.10;;;5.30;;
10761;SDS011;5433;50.862;4.320;2023-10-13T15:53:07;13.02;;;5.85;;
10761;SDS011;5433;50.862;4.320;2023-10-13T15:55:37;10.25;;;5.10;;
10761;SDS011;5433;50.862;4.320;2023-10-13T15:58:04;11.10;;;5.00;;